Bird Town, Arkansas
Current Conditions -  °F | °C
As of 7:44 AM on Tuesday 21 Oct 2014 (Local Time) from KRUE Reporting Station
Haze Haze  
Wind Chill: 51°   Ceiling: 100
Heat Index: 51°   Visibility: 1.2mi
Dew Point: 49°   Wind: 0mph
Humidity: 92%   Direction: NA
Pressure: 30.1"   Gusts: NA
Location:  35.2739°N, 92.5381°W
Report Text: KRUE 211244Z AUTO 00000KT 1 1/4SM BR BKN001 11/09 A3010 RMK AO2 T01060094
Loading
Personal Weather Stations






























Interactive Weather Map
Tropical Storm Tracking
New forecast layout! Learn more

10-Day Weather Forecast

Advertisements
Track Severe Weather on mobile